Hampden, North Dakota
Current Conditions -  °F | °C
As of 8:35 PM on Sunday 25 Jan 2015 (Local Time) from KD55 Reporting Station
Overcast Overcast  
Wind Chill: 11°   Ceiling: 600
Heat Index: 25°   Visibility: 8mi
Dew Point: 23°   Wind: 20mph
Humidity: 93%   Direction: 200°SSW
Pressure: 29.71"   Gusts: NA
Location:  48.54°N, 98.65°W
Report Text: KD55 260235Z AUTO 20017KT 8SM OVC006 M04/M05 A2971 RMK AO2
Loading
Personal Weather Stations






























Interactive Weather Map New forecast layout! Learn more

10-Day Weather Forecast

Advertisements
Track Severe Weather on mobile